createdAt,value
2019-03-22T00:02:04.014Z,85.50
2019-03-22T00:04:34.318Z,85.45
2019-03-22T00:07:04.635Z,85.37
2019-03-22T00:09:34.817Z,85.12
2019-03-22T00:12:05.032Z,85.23
2019-03-22T00:14:36.932Z,85.35
2019-03-22T00:17:07.266Z,85.42
2019-03-22T00:19:37.862Z,85.40
2019-03-22T00:22:08.100Z,85.11
2019-03-22T00:24:38.126Z,84.85
2019-03-22T00:27:16.479Z,84.61
2019-03-22T00:29:39.932Z,84.55
2019-03-22T00:32:09.994Z,84.44
2019-03-22T00:34:40.252Z,84.33
2019-03-22T00:37:10.459Z,84.50
2019-03-22T00:39:40.544Z,84.64
2019-03-22T00:42:10.636Z,84.73
2019-03-22T00:44:40.803Z,84.72
2019-03-22T00:47:10.980Z,84.28
2019-03-22T00:49:41.487Z,83.89
2019-03-22T00:52:11.658Z,83.89
2019-03-22T00:54:42.037Z,83.91
2019-03-22T00:57:12.413Z,83.97
2019-03-22T00:59:42.509Z,84.09
2019-03-22T01:02:12.611Z,84.09
2019-03-22T01:04:42.749Z,83.98
2019-03-22T01:07:12.894Z,84.08
2019-03-22T01:09:43.018Z,84.21
2019-03-22T01:12:13.526Z,84.75
2019-03-22T01:14:43.722Z,84.72
2019-03-22T01:17:14.143Z,84.72
2019-03-22T01:19:45.021Z,84.62
2019-03-22T01:22:15.021Z,84.75
2019-03-22T01:24:45.257Z,85.09
2019-03-22T01:27:15.502Z,85.61
2019-03-22T01:29:45.770Z,85.61
2019-03-22T01:32:16.158Z,85.47
2019-03-22T01:34:46.773Z,85.47
2019-03-22T01:37:17.096Z,85.29
2019-03-22T01:39:47.280Z,85.29
2019-03-22T01:42:17.407Z,85.21
2019-03-22T01:44:47.788Z,85.14
2019-03-22T01:47:18.124Z,85.34
2019-03-22T01:49:48.666Z,85.43
2019-03-22T01:52:18.943Z,85.36
2019-03-22T01:54:49.346Z,85.39
2019-03-22T01:57:19.568Z,85.48
2019-03-22T01:59:49.881Z,85.67
2019-03-22T02:02:20.127Z,85.82
2019-03-22T02:04:50.532Z,85.50
2019-03-22T02:07:21.281Z,85.50
2019-03-22T02:09:51.896Z,85.57
2019-03-22T02:12:22.233Z,85.37
2019-03-22T02:14:52.344Z,85.47
2019-03-22T02:17:22.369Z,85.58
2019-03-22T02:19:52.774Z,85.67
2019-03-22T02:22:22.941Z,85.76
2019-03-22T02:24:53.271Z,85.90
2019-03-22T02:27:23.756Z,85.98
2019-03-22T02:29:53.906Z,86.10
2019-03-22T02:32:24.070Z,86.24
2019-03-22T02:34:54.647Z,86.28
2019-03-22T02:37:24.867Z,86.35
2019-03-22T02:39:55.061Z,86.38
2019-03-22T02:42:25.389Z,86.27
2019-03-22T02:44:55.718Z,86.21
2019-03-22T02:47:26.040Z,86.16
2019-03-22T02:49:56.581Z,86.16
2019-03-22T02:52:26.886Z,86.04
2019-03-22T02:54:57.414Z,85.98
2019-03-22T02:57:27.589Z,85.86
2019-03-22T02:59:57.946Z,85.83
2019-03-22T03:02:28.298Z,85.70
2019-03-22T03:04:59.032Z,85.77
2019-03-22T03:07:29.162Z,85.90
2019-03-22T03:09:59.536Z,85.82
2019-03-22T03:12:29.981Z,85.68
2019-03-22T03:15:00.453Z,85.66
2019-03-22T03:17:30.620Z,85.50
2019-03-22T03:20:01.073Z,85.15
2019-03-22T03:22:31.363Z,85.05
2019-03-22T03:25:01.720Z,84.98
2019-03-22T03:27:31.852Z,84.87
2019-03-22T03:30:02.084Z,84.87
2019-03-22T03:32:32.397Z,84.83
2019-03-22T03:35:03.040Z,84.73
2019-03-22T03:37:33.265Z,84.63
2019-03-22T03:40:03.582Z,84.42
2019-03-22T03:42:33.917Z,84.42
2019-03-22T03:45:04.182Z,84.21
2019-03-22T03:47:34.540Z,84.23
2019-03-22T03:50:05.443Z,84.22
2019-03-22T03:52:39.374Z,84.08
2019-03-22T03:55:08.489Z,83.84
2019-03-22T03:57:38.716Z,83.90
2019-03-22T04:00:09.262Z,83.81
2019-03-22T04:02:39.447Z,83.36
2019-03-22T04:05:10.127Z,83.38
2019-03-22T04:07:40.601Z,83.30
2019-03-22T04:10:10.654Z,83.18
2019-03-22T04:12:40.828Z,83.07
2019-03-22T04:15:11.323Z,82.76
2019-03-22T04:17:41.376Z,82.62
2019-03-22T04:20:11.873Z,82.52
2019-03-22T04:22:42.198Z,82.36
2019-03-22T04:25:12.542Z,82.33
2019-03-22T04:27:42.921Z,82.26
2019-03-22T04:30:13.397Z,82.17
2019-03-22T04:32:43.454Z,82.24
2019-03-22T04:35:13.740Z,82.16
2019-03-22T04:37:43.817Z,82.04
2019-03-22T04:40:27.414Z,82.01
2019-03-22T04:42:57.603Z,81.91
2019-03-22T04:45:30.393Z,81.50
2019-03-22T04:48:07.134Z,81.16
2019-03-22T04:50:40.802Z,80.95
2019-03-22T04:53:15.679Z,80.75
2019-03-22T04:55:49.290Z,80.76
2019-03-22T04:58:21.974Z,80.81
2019-03-22T05:00:53.532Z,80.83
2019-03-22T05:03:25.759Z,80.91
2019-03-22T05:05:57.310Z,80.93
2019-03-22T05:08:29.676Z,81.06
2019-03-22T05:11:02.492Z,81.13
2019-03-22T05:13:35.604Z,81.22
2019-03-22T05:16:07.775Z,81.19
2019-03-22T05:18:38.957Z,81.16
2019-03-22T05:21:12.114Z,81.29
2019-03-22T05:23:42.927Z,81.39
2019-03-22T05:26:15.104Z,81.35
2019-03-22T05:28:45.588Z,81.37
2019-03-22T05:31:38.039Z,81.51
2019-03-22T05:34:08.137Z,81.61
2019-03-22T05:36:38.617Z,81.81
2019-03-22T05:39:10.423Z,81.95
2019-03-22T05:41:40.474Z,81.87
2019-03-22T05:44:10.502Z,81.88
2019-03-22T05:46:40.607Z,81.89
2019-03-22T05:49:10.651Z,81.79
2019-03-22T05:51:40.735Z,81.84
2019-03-22T05:54:10.738Z,81.86
2019-03-22T05:56:40.870Z,81.81
2019-03-22T05:59:10.904Z,81.78
2019-03-22T06:01:40.940Z,81.74
2019-03-22T06:04:10.918Z,81.70
2019-03-22T06:06:41.180Z,81.57
2019-03-22T06:09:11.500Z,81.90
2019-03-22T06:11:41.514Z,82.10
2019-03-22T06:14:11.508Z,82.38
2019-03-22T06:16:41.556Z,82.49
2019-03-22T06:19:11.647Z,82.60
2019-03-22T06:21:41.949Z,82.95
2019-03-22T06:24:11.987Z,83.04
2019-03-22T06:26:42.223Z,82.91
2019-03-22T06:29:12.363Z,82.78
2019-03-22T06:31:42.386Z,82.75
2019-03-22T06:34:12.408Z,82.77
2019-03-22T06:36:42.633Z,82.79
2019-03-22T06:39:13.035Z,82.82
2019-03-22T06:41:43.216Z,83.25
2019-03-22T06:44:13.227Z,83.51
2019-03-22T06:46:43.261Z,83.65
2019-03-22T06:49:13.287Z,83.76
2019-03-22T06:51:43.476Z,83.64
2019-03-22T06:54:13.519Z,83.66
2019-03-22T06:56:43.508Z,83.74
2019-03-22T06:59:13.626Z,83.85
2019-03-22T07:01:43.694Z,84.01
2019-03-22T07:04:13.814Z,84.09
2019-03-22T07:06:44.032Z,84.25
2019-03-22T07:09:14.234Z,84.34
2019-03-22T07:11:44.269Z,84.34
2019-03-22T07:14:14.351Z,84.41
2019-03-22T07:16:44.487Z,84.35
2019-03-22T07:19:14.621Z,84.37
2019-03-22T07:21:44.985Z,84.49
2019-03-22T07:24:15.287Z,84.45
2019-03-22T07:26:45.397Z,84.51
2019-03-22T07:29:15.538Z,84.57
2019-03-22T07:31:45.679Z,84.66
2019-03-22T07:34:15.727Z,84.68
2019-03-22T07:36:47.148Z,84.31
2019-03-22T07:39:17.203Z,84.46
2019-03-22T07:41:47.233Z,84.86
2019-03-22T07:44:17.359Z,84.71
2019-03-22T07:46:47.568Z,84.59
2019-03-22T07:49:17.649Z,84.40
2019-03-22T07:51:48.032Z,84.21
2019-03-22T07:54:18.068Z,84.20
2019-03-22T07:56:48.196Z,83.68
2019-03-22T07:59:18.210Z,83.68
2019-03-22T08:01:48.246Z,83.80
2019-03-22T08:04:18.420Z,83.44
2019-03-22T08:06:48.587Z,83.78
2019-03-22T08:09:18.588Z,83.78
2019-03-22T08:11:48.736Z,83.50
2019-03-22T08:14:18.710Z,83.47
2019-03-22T08:16:48.744Z,83.21
2019-03-22T08:19:18.794Z,83.21
2019-03-22T08:21:49.414Z,83.31
2019-03-22T08:24:19.619Z,83.31
2019-03-22T08:26:49.771Z,83.19
2019-03-22T08:29:19.876Z,83.09
2019-03-22T08:31:49.933Z,83.04
2019-03-22T08:34:20.066Z,83.15
2019-03-22T08:36:50.547Z,83.06
2019-03-22T08:39:20.629Z,83.06
2019-03-22T08:41:50.712Z,82.82
2019-03-22T08:44:20.744Z,82.89
2019-03-22T08:46:51.799Z,82.83
2019-03-22T08:49:22.075Z,82.37
2019-03-22T08:51:52.462Z,82.37
2019-03-22T08:54:22.903Z,82.09
2019-03-22T08:56:52.952Z,82.09
2019-03-22T08:59:23.044Z,82.32
2019-03-22T09:01:53.162Z,82.31
2019-03-22T09:04:23.214Z,82.07
2019-03-22T09:06:53.553Z,81.81
2019-03-22T09:09:23.672Z,81.81
2019-03-22T09:11:53.743Z,81.81
2019-03-22T09:14:23.876Z,81.46
2019-03-22T09:16:53.959Z,81.15
2019-03-22T09:19:23.999Z,81.04
2019-03-22T09:21:54.510Z,80.65
2019-03-22T09:24:24.890Z,80.68
2019-03-22T09:26:55.061Z,80.58
2019-03-22T09:29:25.162Z,80.28
2019-03-22T09:31:55.424Z,79.45
2019-03-22T09:34:33.549Z,79.36
2019-03-22T09:36:57.518Z,78.99
2019-03-22T09:39:27.836Z,78.13
2019-03-22T09:41:57.874Z,78.63
2019-03-22T09:44:28.415Z,78.57
2019-03-22T09:46:58.843Z,78.22
2019-03-22T09:49:29.314Z,77.98
2019-03-22T09:51:59.675Z,77.98
2019-03-22T09:54:29.851Z,77.92
2019-03-22T09:57:00.386Z,77.91
2019-03-22T09:59:30.530Z,77.66
2019-03-22T10:02:01.259Z,77.07
2019-03-22T10:04:31.305Z,76.59
2019-03-22T10:07:01.942Z,76.28
2019-03-22T10:09:32.221Z,76.67
2019-03-22T10:12:02.476Z,76.67
2019-03-22T10:14:32.619Z,76.51
2019-03-22T10:17:02.955Z,76.51
2019-03-22T10:19:33.049Z,76.03
2019-03-22T10:22:03.834Z,76.03
2019-03-22T10:24:34.269Z,75.56
2019-03-22T10:27:05.319Z,75.31
2019-03-22T10:29:35.733Z,75.31
2019-03-22T10:32:05.975Z,75.21
2019-03-22T10:34:36.174Z,75.21
2019-03-22T10:37:06.558Z,74.74
2019-03-22T10:39:36.663Z,74.50
2019-03-22T10:42:06.700Z,74.15
2019-03-22T10:47:57.150Z,74.40
2019-03-22T10:50:27.217Z,74.30
2019-03-22T10:52:57.379Z,74.37
2019-03-22T10:55:30.261Z,74.35
2019-03-22T10:57:59.408Z,74.55
2019-03-22T11:00:29.659Z,74.16
2019-03-22T11:03:00.026Z,74.09
2019-03-22T11:05:30.075Z,73.35
2019-03-22T11:08:00.578Z,73.17
2019-03-22T11:10:30.676Z,73.17
2019-03-22T11:13:00.933Z,73.11
2019-03-22T11:15:31.025Z,72.86
2019-03-22T11:18:01.438Z,72.57
2019-03-22T11:20:31.456Z,71.82
2019-03-22T11:23:01.481Z,71.82
2019-03-22T11:25:31.595Z,71.52
2019-03-22T11:28:01.723Z,71.52
2019-03-22T11:30:31.835Z,71.33
2019-03-22T11:33:02.070Z,70.89
2019-03-22T11:35:32.282Z,70.82
2019-03-22T11:38:02.450Z,70.74
2019-03-22T11:40:32.598Z,70.28
2019-03-22T11:43:08.518Z,69.83
2019-03-22T11:45:34.622Z,69.63
2019-03-22T11:48:05.294Z,69.34
2019-03-22T11:50:35.502Z,69.28
2019-03-22T11:53:05.592Z,68.47
2019-03-22T11:55:35.801Z,68.75
2019-03-22T11:58:05.954Z,68.95
2019-03-22T12:00:36.107Z,68.18
2019-03-22T12:03:06.425Z,67.87
2019-03-22T12:05:40.638Z,67.00
2019-03-22T12:08:08.401Z,66.79
2019-03-22T12:10:38.556Z,67.00
2019-03-22T12:13:08.860Z,66.92
2019-03-22T12:15:38.921Z,66.87
2019-03-22T12:18:09.327Z,66.02
2019-03-22T12:20:39.482Z,66.27
2019-03-22T12:23:09.558Z,66.04
2019-03-22T12:25:39.716Z,65.62
2019-03-22T12:28:09.810Z,65.30
2019-03-22T12:30:39.835Z,64.83
2019-03-22T12:33:10.243Z,64.72
2019-03-22T12:35:42.486Z,64.75
2019-03-22T12:38:12.239Z,64.76
2019-03-22T12:40:42.227Z,64.32
2019-03-22T12:43:12.301Z,64.39
2019-03-22T12:45:42.479Z,64.61
2019-03-22T12:48:13.245Z,64.37
2019-03-22T12:50:43.343Z,63.85
2019-03-22T12:53:13.384Z,64.00
2019-03-22T12:55:43.522Z,64.42
2019-03-22T12:58:13.583Z,64.60
2019-03-22T13:00:43.680Z,65.38
2019-03-22T13:03:14.064Z,65.89
2019-03-22T13:05:44.233Z,66.06
2019-03-22T13:08:14.648Z,66.28
2019-03-22T13:10:44.690Z,66.59
2019-03-22T13:13:14.709Z,66.57
2019-03-22T13:15:44.745Z,66.45
2019-03-22T13:18:15.012Z,66.53
2019-03-22T13:20:45.136Z,66.75
2019-03-22T13:23:15.269Z,66.77
2019-03-22T13:25:45.365Z,66.87
2019-03-22T13:28:15.404Z,66.68
2019-03-22T13:30:45.454Z,66.16
2019-03-22T13:33:15.573Z,66.46
2019-03-22T13:35:45.627Z,66.48
2019-03-22T13:38:15.629Z,66.38
2019-03-22T13:40:45.673Z,67.07
2019-03-22T13:43:15.966Z,66.67
2019-03-22T13:45:46.041Z,67.02
2019-03-22T13:48:16.695Z,67.41
2019-03-22T13:50:47.279Z,68.38
2019-03-22T13:53:17.278Z,68.97
2019-03-22T13:55:47.342Z,68.98
2019-03-22T13:58:17.336Z,68.96
2019-03-22T14:00:47.450Z,69.62
2019-03-22T14:03:17.785Z,69.51
2019-03-22T14:05:48.094Z,69.97
2019-03-22T14:08:18.370Z,70.41
2019-03-22T14:10:48.572Z,70.70
2019-03-22T14:13:18.580Z,71.00
2019-03-22T14:15:48.843Z,71.81
2019-03-22T14:18:19.098Z,71.65
2019-03-22T14:20:49.288Z,71.80
2019-03-22T14:23:19.348Z,72.00
2019-03-22T14:25:49.369Z,71.90
2019-03-22T14:28:19.407Z,72.21
2019-03-22T14:30:49.920Z,72.20
2019-03-22T14:33:20.205Z,72.03
2019-03-22T14:35:50.427Z,72.02
2019-03-22T14:38:20.617Z,72.25
2019-03-22T14:40:52.173Z,72.32
2019-03-22T14:43:24.269Z,72.16
2019-03-22T14:45:54.439Z,72.35
2019-03-22T14:48:25.065Z,72.41
2019-03-22T14:50:55.365Z,72.51
2019-03-22T14:53:25.491Z,72.57
2019-03-22T14:55:56.054Z,72.53
2019-03-22T14:58:26.161Z,72.59
2019-03-22T15:00:56.264Z,72.76
2019-03-22T15:03:27.614Z,72.92
2019-03-22T15:05:58.105Z,72.73
2019-03-22T15:08:28.267Z,73.33
2019-03-22T15:10:58.341Z,73.00
2019-03-22T15:13:43.766Z,72.76
2019-03-22T15:16:32.735Z,72.76
2019-03-22T15:19:20.574Z,73.50
2019-03-22T15:22:12.596Z,73.50
2019-03-22T15:25:17.027Z,73.73
2019-03-22T15:28:05.993Z,73.78
2019-03-22T15:31:01.388Z,73.96
2019-03-22T15:33:44.009Z,74.17
2019-03-22T15:36:36.248Z,74.28
2019-03-22T15:39:26.323Z,74.46
2019-03-22T15:41:56.648Z,74.21
2019-03-22T15:44:26.753Z,74.26
2019-03-22T15:46:56.804Z,74.58
2019-03-22T15:49:27.335Z,74.71
2019-03-22T15:51:57.404Z,74.49
2019-03-22T15:54:27.425Z,74.96
2019-03-22T15:56:57.566Z,74.95
2019-03-22T15:59:27.925Z,74.95
2019-03-22T16:01:57.975Z,75.13
2019-03-22T16:04:28.555Z,75.17
2019-03-22T16:06:58.609Z,75.44
2019-03-22T16:09:28.607Z,75.75
2019-03-22T16:11:58.852Z,75.48
2019-03-22T16:14:28.995Z,75.80
2019-03-22T16:16:59.179Z,75.88
2019-03-22T16:19:29.353Z,75.94
2019-03-22T16:21:59.365Z,76.25
2019-03-22T16:24:29.383Z,76.33
2019-03-22T16:26:59.518Z,76.42
2019-03-22T16:29:29.646Z,76.70
2019-03-22T16:31:59.696Z,76.68
2019-03-22T16:34:30.120Z,76.91
2019-03-22T16:37:00.187Z,76.91
2019-03-22T16:39:30.514Z,76.87
2019-03-22T16:42:00.714Z,76.87
2019-03-22T16:44:30.906Z,77.18
2019-03-22T16:47:01.126Z,76.99
2019-03-22T16:49:31.645Z,77.28
2019-03-22T16:52:01.870Z,77.80
2019-03-22T16:54:31.930Z,77.58
2019-03-22T16:57:02.302Z,77.67
2019-03-22T16:59:32.603Z,77.62
2019-03-22T17:02:02.798Z,78.06
2019-03-22T17:04:33.495Z,77.82
2019-03-22T17:07:03.586Z,77.91
2019-03-22T17:09:34.082Z,77.89
2019-03-22T17:12:04.339Z,78.18
2019-03-22T17:14:34.588Z,78.13
2019-03-22T17:17:04.730Z,78.48
2019-03-22T17:19:35.078Z,78.70
2019-03-22T17:22:06.285Z,78.89
2019-03-22T17:24:36.396Z,78.99
2019-03-22T17:27:06.688Z,79.69
2019-03-22T17:29:36.779Z,79.69
2019-03-22T17:32:06.800Z,79.74
2019-03-22T17:34:37.133Z,79.76
2019-03-22T17:37:07.592Z,80.21
2019-03-22T17:39:37.659Z,80.21
2019-03-22T17:42:07.919Z,80.75
2019-03-22T17:44:38.662Z,81.09
2019-03-22T17:47:09.029Z,81.70
2019-03-22T17:49:47.811Z,82.84
2019-03-22T17:52:13.631Z,82.84
2019-03-22T17:54:43.659Z,82.14
2019-03-22T17:57:18.683Z,82.37
2019-03-22T17:59:45.913Z,82.55
2019-03-22T18:02:16.272Z,82.90
2019-03-22T18:04:46.524Z,82.90
2019-03-22T18:07:16.594Z,83.21
2019-03-22T18:09:46.737Z,83.34
2019-03-22T18:12:17.124Z,83.82
2019-03-22T18:14:47.678Z,84.07
2019-03-22T18:17:17.996Z,84.18
2019-03-22T18:19:48.293Z,84.26
2019-03-22T18:22:18.883Z,84.46
2019-03-22T18:24:49.090Z,84.16
2019-03-22T18:27:19.333Z,85.15
2019-03-22T18:29:49.643Z,84.68
2019-03-22T18:32:19.894Z,85.10
2019-03-22T18:34:50.269Z,85.17
2019-03-22T18:37:20.787Z,85.20
2019-03-22T18:39:50.966Z,85.38
2019-03-22T18:42:21.209Z,85.35
2019-03-22T18:44:51.352Z,85.04
2019-03-22T18:47:21.549Z,85.42
2019-03-22T18:49:52.003Z,85.42
2019-03-22T18:52:22.183Z,85.60
2019-03-22T18:54:52.297Z,85.49
2019-03-22T18:57:22.309Z,85.59
2019-03-22T18:59:52.297Z,85.65
2019-03-22T19:02:22.680Z,85.87
2019-03-22T19:04:53.370Z,86.53
2019-03-22T19:07:23.352Z,86.42
2019-03-22T19:09:53.401Z,86.46
2019-03-22T19:12:23.521Z,86.42
2019-03-22T19:14:53.649Z,86.81
2019-03-22T19:17:23.759Z,86.70
2019-03-22T19:19:53.926Z,86.44
2019-03-22T19:22:24.036Z,86.49
2019-03-22T19:24:54.058Z,86.78
2019-03-22T19:27:24.181Z,86.99
2019-03-22T19:29:54.310Z,87.24
2019-03-22T19:32:24.531Z,87.01
2019-03-22T19:34:55.013Z,87.01
2019-03-22T19:37:25.084Z,87.25
2019-03-22T19:39:55.232Z,86.84
2019-03-22T19:42:25.270Z,87.01
2019-03-22T19:44:55.292Z,87.45
2019-03-22T19:47:25.365Z,87.31
2019-03-22T19:49:56.044Z,87.20
2019-03-22T19:52:26.127Z,87.35
2019-03-22T19:54:56.186Z,87.42
2019-03-22T19:57:26.369Z,87.39
2019-03-22T19:59:58.477Z,87.59
2019-03-22T20:02:28.329Z,87.36
2019-03-22T20:05:04.710Z,87.37
2019-03-22T20:07:30.484Z,87.37
2019-03-22T20:10:00.666Z,87.52
2019-03-22T20:12:30.852Z,87.76
2019-03-22T20:15:00.869Z,87.89
2019-03-22T20:17:31.052Z,87.61
2019-03-22T20:20:01.276Z,87.67
2019-03-22T20:22:31.365Z,88.08
2019-03-22T20:25:01.538Z,87.78
2019-03-22T20:27:31.866Z,87.65
2019-03-22T20:30:02.153Z,88.00
2019-03-22T20:32:32.201Z,87.86
2019-03-22T20:35:02.679Z,87.94
2019-03-22T20:37:33.338Z,88.00
2019-03-22T20:40:03.659Z,87.96
2019-03-22T20:42:33.801Z,88.44
2019-03-22T20:45:04.323Z,88.22
2019-03-22T20:47:34.709Z,88.27
2019-03-22T20:50:05.407Z,88.13
2019-03-22T20:52:35.898Z,88.14
2019-03-22T20:55:07.345Z,88.04
2019-03-22T20:57:37.395Z,87.98
2019-03-22T21:00:08.314Z,88.28
2019-03-22T21:02:38.859Z,88.29
2019-03-22T21:05:09.655Z,88.34
2019-03-22T21:07:40.130Z,88.59
2019-03-22T21:10:10.737Z,88.43
2019-03-22T21:12:41.033Z,88.53
2019-03-22T21:15:11.412Z,88.58
2019-03-22T21:17:41.710Z,88.39
2019-03-22T21:20:12.473Z,88.30
2019-03-22T21:22:42.846Z,88.30
2019-03-22T21:25:13.602Z,88.31
2019-03-22T21:27:43.626Z,88.73
2019-03-22T21:30:14.560Z,88.73
2019-03-22T21:32:45.853Z,88.30
2019-03-22T21:35:22.475Z,88.30
2019-03-22T21:37:48.532Z,88.61
2019-03-22T21:40:18.908Z,88.75
2019-03-22T21:42:49.277Z,88.84
2019-03-22T21:45:19.737Z,88.59
2019-03-22T21:47:50.104Z,88.91
2019-03-22T21:50:20.655Z,88.68
2019-03-22T21:52:51.083Z,88.68
2019-03-22T21:55:21.413Z,88.74
2019-03-22T21:57:51.746Z,88.54
2019-03-22T22:00:22.158Z,89.06
2019-03-22T22:02:52.381Z,88.79
2019-03-22T22:05:22.982Z,89.12
2019-03-22T22:07:53.166Z,88.95
2019-03-22T22:10:23.334Z,88.67
2019-03-22T22:12:53.730Z,88.70
2019-03-22T22:15:24.099Z,88.84
2019-03-22T22:17:54.538Z,89.08
2019-03-22T22:20:29.057Z,89.08
2019-03-22T22:22:58.806Z,88.98
2019-03-22T22:25:29.364Z,88.99
2019-03-22T22:27:59.676Z,89.01
2019-03-22T22:30:30.056Z,89.01
2019-03-22T22:33:00.529Z,89.22
2019-03-22T22:35:30.852Z,89.06
2019-03-22T22:38:01.239Z,89.13
2019-03-22T22:40:31.999Z,89.15
2019-03-22T22:43:02.178Z,89.01
2019-03-22T22:45:32.518Z,89.25
2019-03-22T22:48:02.933Z,89.25
2019-03-22T22:50:33.680Z,89.23
2019-03-22T22:53:04.251Z,89.28
2019-03-22T22:55:34.543Z,89.07
2019-03-22T22:58:04.860Z,88.89
2019-03-22T23:00:35.312Z,88.89
2019-03-22T23:03:05.841Z,89.24
2019-03-22T23:05:36.303Z,89.35
2019-03-22T23:08:06.445Z,89.02
2019-03-22T23:10:36.869Z,89.02
2019-03-22T23:13:07.321Z,89.17
2019-03-22T23:15:37.625Z,89.19
2019-03-22T23:18:08.004Z,89.42
2019-03-22T23:20:38.212Z,89.19
2019-03-22T23:23:08.368Z,89.22
2019-03-22T23:25:38.700Z,89.41
2019-03-22T23:28:08.864Z,89.40
2019-03-22T23:30:39.033Z,89.03
2019-03-22T23:33:09.315Z,89.15
2019-03-22T23:35:39.833Z,89.24
2019-03-22T23:38:10.041Z,88.97
2019-03-22T23:40:40.295Z,88.97
2019-03-22T23:43:10.577Z,89.24
2019-03-22T23:45:41.226Z,89.35
2019-03-22T23:48:11.451Z,89.85
2019-03-22T23:50:41.798Z,89.85
2019-03-22T23:53:12.298Z,89.53
2019-03-22T23:55:42.698Z,89.45
2019-03-22T23:58:12.869Z,89.54
